Nearby METAR Reports

 

KSLE - Salem, Oregon, USA
Distance from station: NE 1mi, 2km
Updated: Tue, 27-Sep-2022 1:56pm PDT
Clear
Clear
 Wind from SSW
Wind: SSW 6 mph , 9 km/h
Temperature: 79°F , 26°C
Dew Point: 55°F , 13°C
Humidity: 45%
Barometer: 29.89 inHg , 1012.2 hPa
Clouds: Clear
Visibility: 10 miles , 16 km
2022/09/27 20:56 KSLE 272056Z 21005KT 10SM CLR 26/13 A2989 RMK AO2 SLP120 T02560133 56008
KMMV - Mcminnville, Oregon, USA
Distance from station: NNW 22mi, 36km
Updated: Tue, 27-Sep-2022 1:53pm PDT
Clear
Clear
 Wind from SW
Wind: SW 12 mph , 19 km/h
Temperature: 75°F , 24°C
Dew Point: 55°F , 13°C
Humidity: 50%
Barometer: 29.89 inHg , 1012.2 hPa
Clouds: Clear
Visibility: 10 miles , 16 km
2022/09/27 20:53 KMMV 272053Z AUTO 23010KT 10SM CLR 24/13 A2989 RMK AO2 SLP120 T02390133 56009
 
KUAO - Aurora, Oregon, USA
Distance from station: NNE 28mi, 45km
Updated: Tue, 27-Sep-2022 1:53pm PDT
Clear
Clear
 Wind from SW
Wind: SW 8 mph , 13 km/h
Temperature: 79°F , 26°C
Dew Point: 57°F , 14°C
Humidity: 48%
Barometer: 29.90 inHg , 1012.5 hPa
Clouds: Clear
Visibility: 10 miles , 16 km
2022/09/27 20:53 KUAO 272053Z 23007KT 180V250 10SM CLR 26/14 A2990 RMK AO2 SLP123 T02560139 58009
KCVO - Corvallis Muni A, Oregon, USA
Distance from station: SSW 29mi, 47km
Updated: Tue, 27-Sep-2022 1:56pm PDT
Clear
Clear
 Wind from NW
Wind: NW 13 mph , 20 km/h
Temperature: 68°F , 20°C
Dew Point: 54°F , 12°C
Humidity: 60%
Barometer: 29.93 inHg , 1013.5 hPa
Clouds: Clear
Visibility: 10 miles , 16 km
2022/09/27 20:56 KCVO 272056Z AUTO 31011KT 10SM CLR 20/12 A2993 RMK AO2 SLP137 T02000122 58003
 
KHIO - Hillsboro/Portld, Oregon, USA
Distance from station: N 46mi, 74km
Updated: Tue, 27-Sep-2022 1:53pm PDT
Clear
Clear
 Wind from SSE
Wind: SSE 6 mph , 9 km/h
Temperature: 79°F , 26°C
Dew Point: 57°F , 14°C
Humidity: 48%
Barometer: 29.88 inHg , 1011.9 hPa
Clouds: Clear
Visibility: 10 miles , 16 km
2022/09/27 20:53 KHIO 272053Z 16005KT 10SM CLR 26/14 A2988 RMK AO2 SLP115 T02610139 58012